Time;durP1;ratioP1;P1;durP2;ratioP2;P2;SDS_P1;SDS_P2;PMS_P1;PMS_P2;Temp;Humidity;BMP_temperature;BMP_pressure;BME280_temperature;BME280_humidity;BME280_pressure;Samples;Min_cycle;Max_cycle;Signal;HPM_P1;HPM_P2
2022/06/22 00:01:17;;;;;;;17.80;15.95;;;;;;;-142.64;100.00;58178.75;5052390;28;20410;-59
2022/06/22 00:03:47;;;;;;;20.80;15.57;;;;;;;-142.64;100.00;58178.75;5053887;28;20029;-59
2022/06/22 00:06:26;;;;;;;18.58;16.02;;;;;;;-142.64;100.00;58178.75;5053961;28;20029;-60
2022/06/22 00:08:52;;;;;;;21.10;16.58;;;;;;;-142.64;100.00;58178.75;5052664;28;20036;-60
2022/06/22 00:11:17;;;;;;;18.08;16.15;;;;;;;-142.64;100.00;58178.75;5052454;28;20032;-62
2022/06/22 00:13:55;;;;;;;19.17;16.20;;;;;;;-142.64;100.00;58178.75;5053377;28;20068;-59
2022/06/22 00:16:28;;;;;;;20.08;16.35;;;;;;;-142.64;100.00;58178.75;5052328;28;20060;-60
2022/06/22 00:18:54;;;;;;;17.90;15.93;;;;;;;-142.64;100.00;58178.75;5052192;28;20040;-60
2022/06/22 00:21:32;;;;;;;19.58;17.48;;;;;;;-142.64;100.00;58178.75;5053292;28;20442;-60
2022/06/22 00:24:03;;;;;;;20.08;16.65;;;;;;;-142.64;100.00;58178.75;5053205;28;20116;-59
2022/06/22 00:26:34;;;;;;;21.67;17.33;;;;;;;-142.64;100.00;58178.75;5053178;28;20036;-58
2022/06/22 00:28:59;;;;;;;19.92;16.95;;;;;;;-142.64;100.00;58178.75;5035762;28;20029;-61
2022/06/22 00:31:35;;;;;;;20.13;17.23;;;;;;;-142.64;100.00;58178.75;5053266;28;20480;-60
2022/06/22 00:34:09;;;;;;;25.35;17.35;;;;;;;-142.64;100.00;58178.75;5032092;28;20453;-56
2022/06/22 00:36:58;;;;;;;21.98;17.63;;;;;;;-142.64;100.00;58178.75;5046482;28;20432;-60
2022/06/22 00:39:25;;;;;;;20.98;17.55;;;;;;;-142.64;100.00;58178.75;5053287;28;20098;-60
2022/06/22 00:42:14;;;;;;;23.10;18.08;;;;;;;-142.64;100.00;58178.75;5053257;28;20104;-59
2022/06/22 00:44:44;;;;;;;22.58;19.67;;;;;;;-142.64;100.00;58178.75;5053035;28;20064;-60
2022/06/22 00:47:30;;;;;;;23.98;19.65;;;;;;;-142.64;100.00;58178.75;5051832;28;20399;-57
2022/06/22 00:50:00;;;;;;;21.40;19.13;;;;;;;-142.64;100.00;58178.75;5052933;28;20066;-61
2022/06/22 00:53:14;;;;;;;25.80;21.23;;;;;;;-142.64;100.00;58178.75;5051763;28;20033;-60
2022/06/22 00:55:50;;;;;;;23.40;18.35;;;;;;;-142.64;100.00;58178.75;5047141;28;20052;-59
2022/06/22 00:58:20;;;;;;;25.27;20.02;;;;;;;-142.64;100.00;58178.75;5052713;28;20456;-62
2022/06/22 01:00:55;;;;;;;25.65;19.92;;;;;;;-142.64;100.00;58178.75;5051444;28;20025;-59
2022/06/22 01:03:24;;;;;;;24.45;21.40;;;;;;;-142.64;100.00;58178.75;5051702;28;20138;-57
2022/06/22 01:06:12;;;;;;;24.25;20.20;;;;;;;-142.64;100.00;58178.75;5051458;28;20025;-61
2022/06/22 01:08:52;;;;;;;23.02;20.27;;;;;;;-142.64;100.00;58178.75;5051552;28;20033;-59
2022/06/22 01:14:15;;;;;;;24.35;20.00;;;;;;;-142.64;100.00;58178.75;5050343;28;20557;-60
2022/06/22 01:16:43;;;;;;;24.85;21.70;;;;;;;-142.64;100.00;58178.75;5052246;28;20041;-61
2022/06/22 01:19:34;;;;;;;22.67;20.27;;;;;;;-142.64;100.00;58178.75;5050780;28;20469;-60
2022/06/22 01:22:16;;;;;;;25.73;20.70;;;;;;;-142.64;100.00;58178.75;5051221;28;20025;-59
2022/06/22 01:24:59;;;;;;;23.63;20.98;;;;;;;-142.64;100.00;58178.75;5052292;28;20037;-60
2022/06/22 01:27:31;;;;;;;26.80;21.58;;;;;;;-142.64;100.00;58178.75;5050858;28;20471;-62
2022/06/22 01:30:00;;;;;;;28.50;22.98;;;;;;;-142.64;100.00;58178.75;5052391;28;20033;-61
2022/06/22 01:32:29;;;;;;;28.45;22.40;;;;;;;-142.64;100.00;58178.75;5044669;28;20048;-61
2022/06/22 01:34:56;;;;;;;27.83;23.58;;;;;;;-142.64;100.00;58178.75;5032198;28;20052;-60
2022/06/22 01:37:25;;;;;;;27.20;23.05;;;;;;;-142.64;100.00;58178.75;5032465;28;20503;-60
2022/06/22 01:39:51;;;;;;;30.08;25.30;;;;;;;-142.64;100.00;58178.75;5030944;28;20063;-58
2022/06/22 01:42:45;;;;;;;28.23;24.27;;;;;;;-142.64;100.00;58178.75;5032293;28;20033;-61
2022/06/22 01:45:31;;;;;;;29.15;23.90;;;;;;;-142.64;100.00;58178.75;5031278;28;20042;-59
2022/06/22 01:48:03;;;;;;;29.15;24.75;;;;;;;-142.64;100.00;58178.75;5032279;28;20029;-60
2022/06/22 01:50:31;;;;;;;26.95;24.05;;;;;;;-142.64;100.00;58178.75;5030949;28;20040;-59
2022/06/22 01:53:05;;;;;;;29.45;22.83;;;;;;;-142.64;100.00;58178.75;5032313;28;20037;-60
2022/06/22 01:55:54;;;;;;;26.55;23.65;;;;;;;-142.64;100.00;58178.75;5032138;28;20088;-57
2022/06/22 01:58:19;;;;;;;30.77;23.35;;;;;;;-142.64;100.00;58178.75;5031964;28;20560;-61
2022/06/22 02:01:15;;;;;;;26.83;23.10;;;;;;;-142.64;100.00;58178.75;5032163;28;20120;-60
2022/06/22 02:03:45;;;;;;;32.08;23.73;;;;;;;-142.64;100.00;58178.75;5027906;28;20787;-60
2022/06/22 02:09:07;;;;;;;26.83;23.38;;;;;;;-142.64;100.00;58178.75;5032102;28;20056;-60
2022/06/22 02:11:36;;;;;;;28.77;24.73;;;;;;;-142.64;100.00;58178.75;5032022;28;20137;-60
2022/06/22 02:14:09;;;;;;;33.05;25.13;;;;;;;-142.64;100.00;58178.75;5030703;28;20049;-59
2022/06/22 02:16:43;;;;;;;34.58;26.70;;;;;;;-142.64;100.00;58178.75;5041222;28;20053;-59
2022/06/22 02:19:15;;;;;;;35.80;27.00;;;;;;;-142.64;100.00;58178.75;5050507;28;20037;-57
2022/06/22 02:21:52;;;;;;;32.17;25.08;;;;;;;-142.64;100.00;58178.75;5050474;28;20025;-61
2022/06/22 02:24:28;;;;;;;31.25;25.83;;;;;;;-142.64;100.00;58178.75;5050761;28;20032;-60
2022/06/22 02:26:59;;;;;;;28.98;23.73;;;;;;;-142.64;100.00;58178.75;5054296;28;20029;-61
2022/06/22 02:29:28;;;;;;;;;;;;;;;-142.64;100.00;58178.75;5055389;28;20025;-61
2022/06/22 02:31:57;;;;;;;29.60;23.80;;;;;;;-142.64;100.00;58178.75;5053930;28;19908;-60
2022/06/22 02:34:23;;;;;;;31.73;24.77;;;;;;;-142.64;100.00;58178.75;5035661;28;20040;-62
2022/06/22 02:36:50;;;;;;;31.48;23.98;;;;;;;-142.64;100.00;58178.75;5035667;28;20037;-59
2022/06/22 02:39:17;;;;;;;34.67;24.73;;;;;;;-142.64;100.00;58178.75;5034163;28;20037;-60
2022/06/22 02:44:31;;;;;;;33.00;26.73;;;;;;;-142.64;100.00;58178.75;5035678;28;20095;-60
2022/06/22 02:47:29;;;;;;;38.90;27.58;;;;;;;-142.64;100.00;58178.75;5034245;28;20401;-58
2022/06/22 02:50:05;;;;;;;34.72;26.75;;;;;;;-142.64;100.00;58178.75;5034014;28;20061;-59
2022/06/22 02:52:44;;;;;;;34.13;26.48;;;;;;;-142.64;100.00;58178.75;5034328;28;20443;-59
2022/06/22 02:55:13;;;;;;;35.72;25.92;;;;;;;-142.64;100.00;58178.75;5034160;28;20025;-58
2022/06/22 02:57:54;;;;;;;33.40;26.92;;;;;;;-142.64;100.00;58178.75;5035131;28;20025;-59
2022/06/22 03:00:40;;;;;;;36.58;26.33;;;;;;;-142.64;100.00;58178.75;5033887;28;20184;-60
2022/06/22 03:03:11;;;;;;;35.38;25.92;;;;;;;-142.64;100.00;58178.75;5035091;28;20025;-61
2022/06/22 03:05:38;;;;;;;43.92;27.67;;;;;;;-142.64;100.00;58178.75;5019404;28;20473;-61
2022/06/22 03:08:04;;;;;;;38.75;25.52;;;;;;;-142.64;100.00;58178.75;5036933;28;20033;-62
2022/06/22 03:10:51;;;;;;;34.90;24.73;;;;;;;-142.64;100.00;58178.75;5053786;28;20104;-62
2022/06/22 03:13:33;;;;;;;40.80;27.13;;;;;;;-142.64;100.00;58178.75;5055001;28;20036;-60
2022/06/22 03:15:59;;;;;;;31.83;25.20;;;;;;;-142.64;100.00;58178.75;5053429;28;20488;-60
2022/06/22 03:18:27;;;;;;;37.05;25.40;;;;;;;-142.64;100.00;58178.75;5053624;28;20040;-60
2022/06/22 03:20:58;;;;;;;39.40;26.00;;;;;;;-142.64;100.00;58178.75;5053611;28;20033;-61
2022/06/22 03:23:48;;;;;;;34.50;26.83;;;;;;;-142.64;100.00;58178.75;5054580;28;20029;-62
2022/06/22 03:26:21;;;;;;;39.92;28.83;;;;;;;-142.64;100.00;58178.75;5054767;28;20032;-59
2022/06/22 03:28:50;;;;;;;35.90;27.33;;;;;;;-142.64;100.00;58178.75;5054342;28;20163;-59
2022/06/22 03:31:21;;;;;;;33.33;25.08;;;;;;;-142.64;100.00;58178.75;5053301;28;20021;-60
2022/06/22 03:33:51;;;;;;;34.70;26.40;;;;;;;-142.64;100.00;58178.75;5035842;28;20126;-62
2022/06/22 03:36:24;;;;;;;33.92;24.30;;;;;;;-142.64;100.00;58178.75;5032739;28;20025;-61
2022/06/22 03:38:54;;;;;;;32.70;25.65;;;;;;;-142.64;100.00;58178.75;5016578;28;20034;-60
2022/06/22 03:41:23;;;;;;;31.60;24.60;;;;;;;-142.64;100.00;58178.75;5033243;28;20473;-61
2022/06/22 03:44:15;;;;;;;29.85;23.55;;;;;;;-142.64;100.00;58178.75;5033124;28;20439;-59
2022/06/22 03:46:42;;;;;;;;;;;;;;;-142.64;100.00;58178.75;5033679;28;20051;-60
2022/06/22 03:49:17;;;;;;;33.35;24.52;;;;;;;-142.64;100.00;58178.75;5033213;28;19938;-61
2022/06/22 03:52:07;;;;;;;28.85;23.80;;;;;;;-142.64;100.00;58178.75;5033067;28;20461;-60
2022/06/22 03:54:32;;;;;;;26.55;22.83;;;;;;;-142.64;100.00;58178.75;5034057;28;20037;-61
2022/06/22 03:57:00;;;;;;;30.42;23.60;;;;;;;-142.64;100.00;58178.75;5047340;28;20047;-62
2022/06/22 03:59:26;;;;;;;30.77;23.75;;;;;;;-142.64;100.00;58178.75;5036147;28;20044;-61
2022/06/22 04:01:53;;;;;;;33.55;23.80;;;;;;;-142.64;100.00;58178.75;5052916;28;20040;-61
2022/06/22 04:04:20;;;;;;;31.83;23.45;;;;;;;-142.64;100.00;58178.75;5052888;28;20075;-61
2022/06/22 04:06:47;;;;;;;31.52;24.13;;;;;;;-142.64;100.00;58178.75;5053707;28;20043;-60
2022/06/22 04:09:18;;;;;;;35.63;23.17;;;;;;;-142.64;100.00;58178.75;5052445;28;20032;-61
2022/06/22 04:12:12;;;;;;;32.03;24.52;;;;;;;-142.64;100.00;58178.75;5053913;28;20035;-60
2022/06/22 04:14:46;;;;;;;31.67;22.65;;;;;;;-142.64;100.00;58178.75;5050503;28;20507;-61
2022/06/22 04:17:30;;;;;;;30.60;23.92;;;;;;;-142.64;100.00;58178.75;5053940;28;20041;-61
2022/06/22 04:20:01;;;;;;;32.70;22.98;;;;;;;-142.64;100.00;58178.75;5053744;28;20534;-61
2022/06/22 04:22:28;;;;;;;32.45;25.25;;;;;;;-142.64;100.00;58178.75;5053744;28;20033;-61
2022/06/22 04:25:00;;;;;;;33.67;26.83;;;;;;;-142.64;100.00;58178.75;5035701;28;20439;-61
2022/06/22 04:27:29;;;;;;;34.88;26.10;;;;;;;-142.64;100.00;58178.75;5053502;28;20396;-60
2022/06/22 04:30:18;;;;;;;37.97;27.08;;;;;;;-142.64;100.00;58178.75;5051950;28;20098;-61
2022/06/22 04:32:55;;;;;;;40.72;28.17;;;;;;;-142.64;100.00;58178.75;5043346;28;20079;-60
2022/06/22 04:35:36;;;;;;;32.95;25.80;;;;;;;-142.64;100.00;58178.75;5032221;28;20120;-60
2022/06/22 04:38:26;;;;;;;37.20;26.67;;;;;;;-142.64;100.00;58178.75;5033269;28;20040;-61
2022/06/22 04:41:22;;;;;;;35.30;25.65;;;;;;;-142.64;100.00;58178.75;5033459;28;20028;-61
2022/06/22 04:43:48;;;;;;;40.03;25.38;;;;;;;-142.64;100.00;58178.75;5031905;28;20507;-60
2022/06/22 04:46:18;;;;;;;32.83;25.38;;;;;;;-142.64;100.00;58178.75;5038162;28;20482;-59
2022/06/22 04:48:47;;;;;;;29.73;24.15;;;;;;;-142.64;100.00;58178.75;5051021;28;20125;-61
2022/06/22 04:51:20;;;;;;;30.13;24.02;;;;;;;-142.64;100.00;58178.75;5052190;28;20044;-60
2022/06/22 04:54:10;;;;;;;35.22;25.85;;;;;;;-142.64;100.00;58178.75;5034877;28;20167;-59
2022/06/22 04:56:37;;;;;;;28.27;23.52;;;;;;;-142.64;100.00;58178.75;5052507;28;20045;-59
2022/06/22 04:59:04;;;;;;;30.65;22.73;;;;;;;-142.64;100.00;58178.75;5051062;28;20404;-62
2022/06/22 05:01:35;;;;;;;31.02;23.05;;;;;;;-142.64;100.00;58178.75;5051517;28;20039;-57
2022/06/22 05:04:05;;;;;;;35.07;24.93;;;;;;;-142.64;100.00;58178.75;5051358;28;20388;-61
2022/06/22 05:06:58;;;;;;;30.13;24.00;;;;;;;-142.64;100.00;58178.75;5051428;28;20057;-62
2022/06/22 05:09:36;;;;;;;32.28;24.60;;;;;;;-142.64;100.00;58178.75;5051449;28;20491;-59
2022/06/22 05:12:02;;;;;;;34.15;23.40;;;;;;;-142.64;100.00;58178.75;5051060;28;20029;-60
2022/06/22 05:14:30;;;;;;;29.40;21.88;;;;;;;-142.64;100.00;58178.75;5051317;28;20510;-61
2022/06/22 05:17:01;;;;;;;24.52;21.73;;;;;;;-142.64;100.00;58178.75;5050672;28;20476;-61
2022/06/22 05:19:33;;;;;;;24.77;20.08;;;;;;;-142.64;100.00;58178.75;5050697;28;20025;-59
2022/06/22 05:21:58;;;;;;;27.35;21.20;;;;;;;-142.64;100.00;58178.75;5051173;28;20534;-61
2022/06/22 05:24:32;;;;;;;30.83;20.73;;;;;;;-142.64;100.00;58178.75;5052271;28;20624;-61
2022/06/22 05:26:59;;;;;;;23.98;19.60;;;;;;;-142.64;100.00;58178.75;5052746;28;20075;-61
2022/06/22 05:29:33;;;;;;;24.15;19.83;;;;;;;-142.64;100.00;58178.75;5051254;28;20029;-60
2022/06/22 05:32:00;;;;;;;23.38;20.17;;;;;;;-142.64;100.00;58178.75;5048660;28;20033;-60
2022/06/22 05:34:29;;;;;;;21.42;18.60;;;;;;;-142.64;100.00;58178.75;5030899;28;20106;-62
2022/06/22 05:36:59;;;;;;;21.25;18.30;;;;;;;-142.64;100.00;58178.75;5048230;28;20063;-63
2022/06/22 05:39:24;;;;;;;23.17;19.63;;;;;;;-142.64;100.00;58178.75;5050955;28;20029;-60
2022/06/22 05:41:50;;;;;;;22.92;17.90;;;;;;;-142.64;100.00;58178.75;5052062;28;20377;-60
2022/06/22 05:44:17;;;;;;;20.13;18.02;;;;;;;-142.64;100.00;58178.75;5051960;28;20494;-61
2022/06/22 05:46:50;;;;;;;17.92;15.75;;;;;;;-142.64;100.00;58178.75;5051907;28;20037;-62
2022/06/22 05:49:16;;;;;;;18.05;15.85;;;;;;;-142.64;100.00;58178.75;5050403;28;20025;-60
2022/06/22 05:51:57;;;;;;;17.42;15.63;;;;;;;-142.64;100.00;58178.75;5034333;28;20116;-60
2022/06/22 05:54:55;;;;;;;18.70;16.75;;;;;;;-142.64;100.00;58178.75;5052031;28;20025;-61
2022/06/22 05:57:36;;;;;;;18.15;16.35;;;;;;;-142.64;100.00;58178.75;5050599;28;20055;-61
2022/06/22 06:00:29;;;;;;;15.77;14.15;;;;;;;-142.64;100.00;58178.75;5050498;28;20035;-60
2022/06/22 06:03:01;;;;;;;16.00;12.98;;;;;;;-142.64;100.00;58178.75;5042817;28;20043;-60
2022/06/22 06:05:30;;;;;;;16.17;14.27;;;;;;;-142.64;100.00;58178.75;5050615;28;20028;-62
2022/06/22 06:07:58;;;;;;;14.75;13.07;;;;;;;-142.64;100.00;58178.75;5045312;28;20520;-60
2022/06/22 06:10:32;;;;;;;15.45;13.57;;;;;;;-142.64;100.00;58178.75;5050003;28;20044;-60
2022/06/22 06:13:00;;;;;;;12.57;11.10;;;;;;;-142.64;100.00;58178.75;5039329;28;20037;-61
2022/06/22 06:15:26;;;;;;;15.52;11.65;;;;;;;-142.64;100.00;58178.75;5046017;28;20034;-60
2022/06/22 06:17:55;;;;;;;13.07;11.77;;;;;;;-142.64;100.00;58178.75;5046774;28;20180;-61
2022/06/22 06:20:32;;;;;;;12.80;11.10;;;;;;;-142.64;100.00;58178.75;5031230;28;20236;-60
2022/06/22 06:23:06;;;;;;;13.73;11.85;;;;;;;-142.64;100.00;58178.75;5030530;28;20402;-60
2022/06/22 06:28:33;;;;;;;14.63;12.10;;;;;;;-142.64;100.00;58178.75;5050772;28;20083;-60
2022/06/22 06:31:06;;;;;;;14.82;11.85;;;;;;;-142.64;100.00;58178.75;5050246;28;20065;-60
2022/06/22 06:33:33;;;;;;;12.80;11.25;;;;;;;-142.64;100.00;58178.75;5035248;28;20120;-64
2022/06/22 06:36:07;;;;;;;13.32;10.93;;;;;;;-142.64;100.00;58178.75;5031808;28;20029;-59
2022/06/22 06:38:40;;;;;;;12.02;10.82;;;;;;;-142.64;100.00;58178.75;5031597;28;20041;-60
2022/06/22 06:41:22;;;;;;;13.13;10.50;;;;;;;-142.64;100.00;58178.75;5031458;28;20037;-61
2022/06/22 06:43:53;;;;;;;11.35;9.63;;;;;;;-142.64;100.00;58178.75;5030501;28;20036;-61
2022/06/22 06:46:36;;;;;;;10.85;9.75;;;;;;;-142.64;100.00;58178.75;5030400;28;20128;-59
2022/06/22 06:49:03;;;;;;;12.60;9.23;;;;;;;-142.64;100.00;58178.75;5031642;28;20064;-60
2022/06/22 06:51:30;;;;;;;8.95;8.05;;;;;;;-142.64;100.00;58178.75;5046712;28;20083;-60
2022/06/22 06:54:00;;;;;;;9.15;8.25;;;;;;;-142.64;100.00;58178.75;5046678;28;20029;-59
2022/06/22 06:56:46;;;;;;;9.70;8.00;;;;;;;-142.64;100.00;58178.75;5046996;28;20061;-59
2022/06/22 06:59:26;;;;;;;10.68;7.90;;;;;;;-142.64;100.00;58178.75;5030422;28;20049;-59
2022/06/22 07:01:52;;;;;;;10.38;7.95;;;;;;;-142.64;100.00;58178.75;5046779;28;20476;-59
2022/06/22 07:04:31;;;;;;;10.82;7.50;;;;;;;-142.64;100.00;58178.75;5030181;28;20029;-59
2022/06/22 07:07:02;;;;;;;12.75;6.90;;;;;;;-142.64;100.00;58178.75;5046392;28;20045;-61
2022/06/22 07:09:32;;;;;;;;;;;;;;;-142.64;100.00;58178.75;5031771;28;20527;-59
2022/06/22 07:12:12;;;;;;;8.65;5.43;;;;;;;-142.64;100.00;58178.75;5032295;28;20376;-59
2022/06/22 07:14:40;;;;;;;8.85;5.88;;;;;;;-142.64;100.00;58178.75;5041449;28;20025;-59
2022/06/22 07:17:09;;;;;;;7.95;5.32;;;;;;;-142.64;100.00;58178.75;5053556;28;20037;-60
2022/06/22 07:19:39;;;;;;;8.30;6.18;;;;;;;-142.64;100.00;58178.75;5035706;28;20368;-59
2022/06/22 07:22:19;;;;;;;12.07;6.93;;;;;;;-142.64;100.00;58178.75;5054135;28;20533;-59
2022/06/22 07:24:50;;;;;;;9.65;5.80;;;;;;;-142.64;100.00;58178.75;5052406;28;20063;-60
2022/06/22 07:27:22;;;;;;;8.75;5.45;;;;;;;-142.64;100.00;58178.75;5052623;28;20033;-60
2022/06/22 07:29:53;;;;;;;9.23;5.43;;;;;;;-142.64;100.00;58178.75;5052695;28;20128;-58
2022/06/22 07:32:27;;;;;;;10.25;6.53;;;;;;;-142.64;100.00;58178.75;5052798;28;20033;-60
2022/06/22 07:35:00;;;;;;;9.43;6.35;;;;;;;-142.64;100.00;58178.75;5052456;28;20025;-58
2022/06/22 07:37:32;;;;;;;10.43;5.90;;;;;;;-142.64;100.00;58178.75;5052283;28;20075;-60
2022/06/22 07:40:18;;;;;;;8.60;6.32;;;;;;;-142.64;100.00;58178.75;5052529;28;20112;-61
2022/06/22 07:42:46;;;;;;;9.43;5.20;;;;;;;-142.64;100.00;58178.75;5053779;28;20025;-59
2022/06/22 07:45:16;;;;;;;8.52;6.20;;;;;;;-142.64;100.00;58178.75;5046049;28;20045;-58
2022/06/22 07:47:57;;;;;;;6.60;5.93;;;;;;;-142.64;100.00;58178.75;5053425;28;20031;-58
2022/06/22 07:50:36;;;;;;;6.03;5.18;;;;;;;-142.64;100.00;58178.75;5052405;28;20067;-58
2022/06/22 07:53:36;;;;;;;6.07;5.05;;;;;;;-142.64;100.00;58178.75;5052252;28;20087;-61
2022/06/22 07:56:10;;;;;;;5.57;4.53;;;;;;;-142.64;100.00;58178.75;5053373;28;20056;-59
2022/06/22 07:58:46;;;;;;;6.95;5.57;;;;;;;-142.64;100.00;58178.75;5053682;28;20122;-59
2022/06/22 08:01:14;;;;;;;8.32;5.47;;;;;;;-142.64;100.00;58178.75;5051954;28;20071;-61
2022/06/22 08:03:42;;;;;;;13.32;5.13;;;;;;;-142.64;100.00;58178.75;5035332;28;20029;-60
2022/06/22 08:06:16;;;;;;;9.07;5.50;;;;;;;-142.64;100.00;58178.75;5052940;28;20037;-59
2022/06/22 08:09:16;;;;;;;7.38;5.13;;;;;;;-142.64;100.00;58178.75;5052901;28;20040;-61
2022/06/22 08:11:47;;;;;;;7.70;4.88;;;;;;;-142.64;100.00;58178.75;5051984;28;20036;-59
2022/06/22 08:14:17;;;;;;;8.27;5.60;;;;;;;-142.64;100.00;58178.75;5052002;28;20407;-59
2022/06/22 08:16:49;;;;;;;11.43;5.17;;;;;;;-142.64;100.00;58178.75;5051703;28;20241;-61
2022/06/22 08:19:14;;;;;;;7.93;5.05;;;;;;;-142.64;100.00;58178.75;5052722;28;20029;-59
2022/06/22 08:21:43;;;;;;;6.95;4.78;;;;;;;-142.64;100.00;58178.75;5051413;28;20084;-60
2022/06/22 08:24:11;;;;;;;10.00;5.53;;;;;;;-142.64;100.00;58178.75;5051659;28;20124;-59
2022/06/22 08:26:37;;;;;;;8.52;5.82;;;;;;;-142.64;100.00;58178.75;5051581;28;20025;-59
2022/06/22 08:29:02;;;;;;;9.95;6.13;;;;;;;-142.64;100.00;58178.75;5035024;28;20396;-52
2022/06/22 08:31:31;;;;;;;7.47;5.13;;;;;;;-142.64;100.00;58178.75;5053206;28;20037;-50
2022/06/22 08:34:00;;;;;;;4.80;4.15;;;;;;;-142.64;100.00;58178.75;5052400;28;20392;-54
2022/06/22 08:36:39;;;;;;;8.02;4.65;;;;;;;-142.64;100.00;58178.75;5052489;28;20029;-54
2022/06/22 08:39:23;;;;;;;7.45;6.70;;;;;;;-142.64;100.00;58178.75;5051129;28;20060;-52
2022/06/22 08:42:18;;;;;;;7.15;5.10;;;;;;;-142.64;100.00;58178.75;5052109;28;20040;-56
2022/06/22 08:45:13;;;;;;;5.30;4.75;;;;;;;-142.64;100.00;58178.75;5050738;28;20025;-52
2022/06/22 08:48:10;;;;;;;4.90;4.07;;;;;;;-142.64;100.00;58178.75;5050492;28;20036;-54
2022/06/22 08:50:44;;;;;;;5.65;4.50;;;;;;;-142.64;100.00;58178.75;5050328;28;20086;-54
2022/06/22 08:53:35;;;;;;;7.25;4.72;;;;;;;-142.64;100.00;58178.75;5052158;28;20120;-52
2022/06/22 08:56:34;;;;;;;5.68;3.90;;;;;;;-142.64;100.00;58178.75;5051904;28;20162;-50
2022/06/22 08:59:18;;;;;;;8.93;5.65;;;;;;;-142.64;100.00;58178.75;5050533;28;20044;-54
2022/06/22 09:02:14;;;;;;;8.98;5.97;;;;;;;-142.64;100.00;58178.75;5051744;28;20104;-50
2022/06/22 09:05:13;;;;;;;13.23;5.90;;;;;;;-142.64;100.00;58178.75;5051654;28;20487;-50
2022/06/22 09:08:05;;;;;;;5.97;4.35;;;;;;;-142.64;100.00;58178.75;5050550;28;20082;-52
2022/06/22 09:10:52;;;;;;;5.75;4.47;;;;;;;-142.64;100.00;58178.75;5050321;28;20045;-54
2022/06/22 09:13:48;;;;;;;4.45;3.67;;;;;;;-142.64;100.00;58178.75;5051678;28;20128;-53
2022/06/22 09:16:14;;;;;;;6.10;5.43;;;;;;;-142.64;100.00;58178.75;5051594;28;20043;-52
2022/06/22 09:18:56;;;;;;;7.85;6.15;;;;;;;-142.64;100.00;58178.75;5051484;28;20036;-54
2022/06/22 09:21:43;;;;;;;9.38;6.47;;;;;;;-142.64;100.00;58178.75;5051264;28;20373;-54
2022/06/22 09:24:48;;;;;;;5.82;5.22;;;;;;;-142.64;100.00;58178.75;5051791;28;20043;-55
2022/06/22 09:27:26;;;;;;;6.47;5.00;;;;;;;-142.64;100.00;58178.75;5048889;28;20048;-54
2022/06/22 09:30:10;;;;;;;8.68;5.35;;;;;;;-142.64;100.00;58178.75;5051123;28;20472;-53
2022/06/22 09:32:48;;;;;;;5.72;4.93;;;;;;;-142.64;100.00;58178.75;5051069;28;20067;-54
2022/06/22 09:35:29;;;;;;;5.47;4.97;;;;;;;-142.64;100.00;58178.75;5050530;28;20365;-57
2022/06/22 09:38:16;;;;;;;7.05;4.43;;;;;;;-142.64;100.00;58178.75;5049930;28;20481;-54
2022/06/22 09:40:57;;;;;;;6.22;4.60;;;;;;;-142.64;100.00;58178.75;5050820;28;20033;-49
2022/06/22 09:43:44;;;;;;;5.68;3.88;;;;;;;-142.64;100.00;58178.75;5049638;28;20032;-53
2022/06/22 09:46:24;;;;;;;5.30;4.72;;;;;;;-142.64;100.00;58178.75;5036697;28;20033;-50
2022/06/22 09:49:00;;;;;;;7.57;4.93;;;;;;;-142.64;100.00;58178.75;5048669;28;20041;-54
2022/06/22 09:51:58;;;;;;;10.07;6.10;;;;;;;-142.64;100.00;58178.75;5045825;28;20060;-53
2022/06/22 09:57:51;;;;;;;5.25;4.13;;;;;;;-142.64;100.00;58178.75;5050971;28;20047;-54
2022/06/22 10:00:26;;;;;;;5.15;4.22;;;;;;;-142.64;100.00;58178.75;5049776;28;20377;-54
2022/06/22 10:03:42;;;;;;;6.78;5.20;;;;;;;-142.64;100.00;58178.75;5033340;28;20039;-52
2022/06/22 10:06:30;;;;;;;6.38;4.53;;;;;;;-142.64;100.00;58178.75;5039194;28;20358;-50
2022/06/22 10:09:18;;;;;;;5.53;4.07;;;;;;;-142.64;100.00;58178.75;5049748;28;20124;-52
2022/06/22 10:11:57;;;;;;;7.68;3.72;;;;;;;-142.64;100.00;58178.75;5033045;28;20077;-54
2022/06/22 10:14:25;;;;;;;6.68;4.20;;;;;;;-142.64;100.00;58178.75;5050863;28;20025;-52
2022/06/22 10:17:03;;;;;;;4.50;3.90;;;;;;;-142.64;100.00;58178.75;5050783;28;20057;-50
2022/06/22 10:19:28;;;;;;;9.27;5.10;;;;;;;-142.64;100.00;58178.75;5050945;28;20040;-57
2022/06/22 10:21:56;;;;;;;6.63;3.73;;;;;;;-142.64;100.00;58178.75;5050896;28;20033;-52
2022/06/22 10:24:44;;;;;;;9.30;4.82;;;;;;;-142.64;100.00;58178.75;5050931;28;20283;-55
2022/06/22 10:27:19;;;;;;;5.80;5.22;;;;;;;-142.64;100.00;58178.75;5033088;28;20056;-55
2022/06/22 10:29:56;;;;;;;6.85;4.72;;;;;;;-142.64;100.00;58178.75;5045186;28;20033;-53
2022/06/22 10:32:39;;;;;;;8.35;4.95;;;;;;;-142.64;100.00;58178.75;5052501;28;20064;-55
2022/06/22 10:35:13;;;;;;;5.35;4.38;;;;;;;-142.64;100.00;58178.75;5030441;28;20025;-54
2022/06/22 10:38:00;;;;;;;4.78;3.25;;;;;;;-142.64;100.00;58178.75;5030906;28;20125;-52
2022/06/22 10:47:29;;;;;;;6.30;2.97;;;;;;;-142.64;100.00;58178.75;5025640;28;20044;-55
2022/06/22 10:50:10;;;;;;;6.15;3.92;;;;;;;-142.64;100.00;58178.75;5013801;28;20065;-53
2022/06/22 10:52:51;;;;;;;3.05;2.75;;;;;;;-142.64;100.00;58178.75;5032428;28;20563;-51
2022/06/22 10:55:29;;;;;;;5.85;2.22;;;;;;;-142.64;100.00;58178.75;5012929;28;20113;-51
2022/06/22 10:57:54;;;;;;;5.10;2.33;;;;;;;-142.64;100.00;58178.75;5034039;28;20029;-51
2022/06/22 11:00:39;;;;;;;3.37;2.83;;;;;;;-142.64;100.00;58178.75;5034106;28;20511;-54
2022/06/22 11:03:44;;;;;;;4.55;2.67;;;;;;;-142.64;100.00;58178.75;5034213;28;20286;-54
2022/06/22 11:06:35;;;;;;;3.30;3.00;;;;;;;-142.64;100.00;58178.75;5032361;28;20037;-52
2022/06/22 11:09:23;;;;;;;5.40;2.75;;;;;;;-142.64;100.00;58178.75;5034456;28;20034;-52
2022/06/22 11:11:58;;;;;;;5.03;2.47;;;;;;;-142.64;100.00;58178.75;5032717;28;20064;-52
2022/06/22 11:14:54;;;;;;;5.88;3.70;;;;;;;-142.64;100.00;58178.75;5033568;28;20029;-50
2022/06/22 11:18:02;;;;;;;4.78;4.25;;;;;;;-142.64;100.00;58178.75;5029236;28;20041;-55
2022/06/22 11:20:33;;;;;;;4.43;3.58;;;;;;;-142.64;100.00;58178.75;5025490;28;20151;-57
2022/06/22 11:23:03;;;;;;;5.05;3.25;;;;;;;-142.64;100.00;58178.75;5034010;28;20029;-49
2022/06/22 11:32:07;;;;;;;6.82;4.50;;;;;;;-142.64;100.00;58178.75;5045748;28;20036;-52
2022/06/22 11:35:06;;;;;;;4.95;3.55;;;;;;;-142.64;100.00;58178.75;5036058;28;20371;-53
2022/06/22 11:37:45;;;;;;;3.00;2.70;;;;;;;-142.64;100.00;58178.75;5054262;28;20439;-52
2022/06/22 11:40:33;;;;;;;3.75;3.00;;;;;;;-142.64;100.00;58178.75;5052627;28;20443;-50
2022/06/22 11:43:11;;;;;;;3.90;3.50;;;;;;;-142.64;100.00;58178.75;5052665;28;20521;-51
2022/06/22 11:45:56;;;;;;;6.80;3.10;;;;;;;-142.64;100.00;58178.75;5052845;28;20028;-52
2022/06/22 11:48:59;;;;;;;3.38;3.05;;;;;;;-142.64;100.00;58178.75;5054203;28;20037;-53
2022/06/22 11:51:26;;;;;;;6.65;3.38;;;;;;;-142.64;100.00;58178.75;5053949;28;20029;-49
2022/06/22 11:54:07;;;;;;;4.55;3.47;;;;;;;-142.64;100.00;58178.75;5053888;28;20400;-54
2022/06/22 11:56:53;;;;;;;5.30;3.78;;;;;;;-142.64;100.00;58178.75;5053763;28;20043;-54
2022/06/22 11:59:52;;;;;;;4.10;3.10;;;;;;;-142.64;100.00;58178.75;5053621;28;20119;-52
2022/06/22 12:02:49;;;;;;;4.82;2.70;;;;;;;-142.64;100.00;58178.75;5053896;28;20029;-55
2022/06/22 12:05:26;;;;;;;2.65;1.83;;;;;;;-142.64;100.00;58178.75;5054320;28;20028;-56
2022/06/22 12:08:16;;;;;;;3.50;1.88;;;;;;;-142.64;100.00;58178.75;5053818;28;20033;-57
2022/06/22 12:10:46;;;;;;;2.95;2.15;;;;;;;-142.64;100.00;58178.75;5053795;28;20112;-54
2022/06/22 12:13:11;;;;;;;5.70;2.08;;;;;;;-142.64;100.00;58178.75;5053709;28;20384;-53